Aviation Digital Data Service (ADDS)

Output produced by METARs form (1154 UTC 22 March 2019)
found at http://www.aviationweather.gov/metar/data/
 
Forecast for: WMKC (KOTA BHARU/SULTA, MY)
Text: TAF WMKC 221100Z 2212/2312 07006KT 9999 SCT020 BKN280
Forecast period: 1200 to 1700 UTC 22 March 2019
Forecast type: FROM: standard forecast or significant change
Winds: from the ENE (70 degrees) at 7 MPH (6 knots; 3.1 m/s)
Visibility: 6 or more miles 10+ km)
Ceiling: 28000 feet AGL
Clouds: scattered clouds at 2000 feet AGL
broken clouds at 28000 feet AGL
Weather: no significant weather forecast for this period
Text: BECMG 2217/2219 22005KT
Forecast period: 1700 UTC 22 March 2019 to 1200 UTC 23 March 2019
Forecast type: BECOMING: Conditions expected to become as follows by 1900 UTC 22 March 2019
Winds: from the SW (220 degrees) at 6 MPH (5 knots; 2.6 m/s)
Visibility: 6 or more miles 10+ km)
Ceiling: 28000 feet AGL
Clouds: scattered clouds at 2000 feet AGL
broken clouds at 28000 feet AGL
Weather: no significant weather forecast for this period